sensor_id;sensor_type;location;lat;lon;timestamp;temperature;humidity
1361;DHT22;674;45.552;-122.600;2023-05-07T00:00:17;17.30;1.00
1361;DHT22;674;45.552;-122.600;2023-05-07T00:02:47;17.20;1.00
1361;DHT22;674;45.552;-122.600;2023-05-07T00:05:15;17.10;1.00
1361;DHT22;674;45.552;-122.600;2023-05-07T00:07:44;16.90;1.00
1361;DHT22;674;45.552;-122.600;2023-05-07T00:10:12;16.90;1.00
1361;DHT22;674;45.552;-122.600;2023-05-07T00:12:41;16.80;1.00
1361;DHT22;674;45.552;-122.600;2023-05-07T00:15:10;16.90;1.00
1361;DHT22;674;45.552;-122.600;2023-05-07T00:17:39;17.00;1.00
1361;DHT22;674;45.552;-122.600;2023-05-07T00:20:08;17.10;1.00
1361;DHT22;674;45.552;-122.600;2023-05-07T00:22:36;17.40;1.00
1361;DHT22;674;45.552;-122.600;2023-05-07T00:25:05;17.60;1.00
1361;DHT22;674;45.552;-122.600;2023-05-07T00:27:34;17.40;1.00
1361;DHT22;674;45.552;-122.600;2023-05-07T00:30:02;17.10;1.00
1361;DHT22;674;45.552;-122.600;2023-05-07T00:32:31;17.00;1.00
1361;DHT22;674;45.552;-122.600;2023-05-07T00:34:59;16.90;1.00
1361;DHT22;674;45.552;-122.600;2023-05-07T00:37:28;16.80;1.00
1361;DHT22;674;45.552;-122.600;2023-05-07T00:39:56;16.80;1.00
1361;DHT22;674;45.552;-122.600;2023-05-07T00:42:25;16.80;1.00
1361;DHT22;674;45.552;-122.600;2023-05-07T00:44:53;16.80;1.00
1361;DHT22;674;45.552;-122.600;2023-05-07T00:47:21;17.20;1.00
1361;DHT22;674;45.552;-122.600;2023-05-07T00:49:50;17.00;1.00
1361;DHT22;674;45.552;-122.600;2023-05-07T00:52:20;17.30;1.00
1361;DHT22;674;45.552;-122.600;2023-05-07T00:54:49;17.40;1.00
1361;DHT22;674;45.552;-122.600;2023-05-07T00:57:18;17.40;1.00
1361;DHT22;674;45.552;-122.600;2023-05-07T00:59:47;17.50;1.00
1361;DHT22;674;45.552;-122.600;2023-05-07T01:02:16;17.40;1.00
1361;DHT22;674;45.552;-122.600;2023-05-07T01:04:45;17.40;1.00
1361;DHT22;674;45.552;-122.600;2023-05-07T01:07:14;17.00;1.00
1361;DHT22;674;45.552;-122.600;2023-05-07T01:09:42;16.90;1.00
1361;DHT22;674;45.552;-122.600;2023-05-07T01:12:11;16.90;1.00
1361;DHT22;674;45.552;-122.600;2023-05-07T01:14:39;17.00;1.00
1361;DHT22;674;45.552;-122.600;2023-05-07T01:17:08;17.00;1.00
1361;DHT22;674;45.552;-122.600;2023-05-07T01:19:36;17.00;1.00
1361;DHT22;674;45.552;-122.600;2023-05-07T01:22:08;16.50;1.00
1361;DHT22;674;45.552;-122.600;2023-05-07T01:24:38;16.40;1.00
1361;DHT22;674;45.552;-122.600;2023-05-07T01:27:06;16.40;1.00
1361;DHT22;674;45.552;-122.600;2023-05-07T01:29:35;16.30;1.00
1361;DHT22;674;45.552;-122.600;2023-05-07T01:32:03;16.20;1.00
1361;DHT22;674;45.552;-122.600;2023-05-07T01:34:35;15.90;1.00
1361;DHT22;674;45.552;-122.600;2023-05-07T01:37:04;15.30;1.00
1361;DHT22;674;45.552;-122.600;2023-05-07T01:39:32;15.20;1.00
1361;DHT22;674;45.552;-122.600;2023-05-07T01:42:01;15.10;1.00
1361;DHT22;674;45.552;-122.600;2023-05-07T01:44:30;15.10;1.00
1361;DHT22;674;45.552;-122.600;2023-05-07T01:46:59;15.10;1.00
1361;DHT22;674;45.552;-122.600;2023-05-07T01:49:27;15.00;1.00
1361;DHT22;674;45.552;-122.600;2023-05-07T01:51:56;15.00;1.00
1361;DHT22;674;45.552;-122.600;2023-05-07T01:54:28;15.20;1.00
1361;DHT22;674;45.552;-122.600;2023-05-07T01:56:57;15.40;1.00
1361;DHT22;674;45.552;-122.600;2023-05-07T01:59:25;15.60;1.00
1361;DHT22;674;45.552;-122.600;2023-05-07T02:01:54;15.60;1.00
1361;DHT22;674;45.552;-122.600;2023-05-07T02:04:22;15.70;1.00
1361;DHT22;674;45.552;-122.600;2023-05-07T02:06:51;15.60;1.00
1361;DHT22;674;45.552;-122.600;2023-05-07T02:09:20;15.40;1.00
1361;DHT22;674;45.552;-122.600;2023-05-07T02:11:49;15.30;1.00
1361;DHT22;674;45.552;-122.600;2023-05-07T02:14:17;15.30;1.00
1361;DHT22;674;45.552;-122.600;2023-05-07T02:16:53;15.40;1.00
1361;DHT22;674;45.552;-122.600;2023-05-07T02:19:21;15.30;1.00
1361;DHT22;674;45.552;-122.600;2023-05-07T02:21:54;15.20;1.00
1361;DHT22;674;45.552;-122.600;2023-05-07T02:24:26;15.10;1.00
1361;DHT22;674;45.552;-122.600;2023-05-07T02:26:54;15.20;1.00
1361;DHT22;674;45.552;-122.600;2023-05-07T02:29:22;15.00;1.00
1361;DHT22;674;45.552;-122.600;2023-05-07T02:31:51;14.70;1.00
1361;DHT22;674;45.552;-122.600;2023-05-07T02:34:21;14.60;1.00
1361;DHT22;674;45.552;-122.600;2023-05-07T02:36:52;14.50;1.00
1361;DHT22;674;45.552;-122.600;2023-05-07T02:39:21;14.50;1.00
1361;DHT22;674;45.552;-122.600;2023-05-07T02:41:49;14.50;1.00
1361;DHT22;674;45.552;-122.600;2023-05-07T02:44:18;14.50;1.00
1361;DHT22;674;45.552;-122.600;2023-05-07T02:46:46;14.40;1.00
1361;DHT22;674;45.552;-122.600;2023-05-07T02:49:15;14.40;1.00
1361;DHT22;674;45.552;-122.600;2023-05-07T02:51:43;14.50;1.00
1361;DHT22;674;45.552;-122.600;2023-05-07T02:54:12;14.50;1.00
1361;DHT22;674;45.552;-122.600;2023-05-07T02:56:41;14.60;1.00
1361;DHT22;674;45.552;-122.600;2023-05-07T02:59:09;14.60;1.00
1361;DHT22;674;45.552;-122.600;2023-05-07T03:01:38;14.60;1.00
1361;DHT22;674;45.552;-122.600;2023-05-07T03:04:06;14.50;1.00
1361;DHT22;674;45.552;-122.600;2023-05-07T03:06:35;14.50;1.00
1361;DHT22;674;45.552;-122.600;2023-05-07T03:09:05;14.30;1.00
1361;DHT22;674;45.552;-122.600;2023-05-07T03:11:33;14.10;1.00
1361;DHT22;674;45.552;-122.600;2023-05-07T03:14:03;14.00;1.00
1361;DHT22;674;45.552;-122.600;2023-05-07T03:16:31;14.20;1.00
1361;DHT22;674;45.552;-122.600;2023-05-07T03:19:00;14.20;1.00
1361;DHT22;674;45.552;-122.600;2023-05-07T03:21:28;14.30;1.00
1361;DHT22;674;45.552;-122.600;2023-05-07T03:23:58;14.20;1.00
1361;DHT22;674;45.552;-122.600;2023-05-07T03:26:27;14.10;1.00
1361;DHT22;674;45.552;-122.600;2023-05-07T03:28:56;14.20;1.00
1361;DHT22;674;45.552;-122.600;2023-05-07T03:31:24;14.20;1.00
1361;DHT22;674;45.552;-122.600;2023-05-07T03:33:57;14.10;1.00
1361;DHT22;674;45.552;-122.600;2023-05-07T03:36:25;14.10;1.00
1361;DHT22;674;45.552;-122.600;2023-05-07T03:38:57;14.00;1.00
1361;DHT22;674;45.552;-122.600;2023-05-07T03:41:25;14.00;1.00
1361;DHT22;674;45.552;-122.600;2023-05-07T03:43:54;14.00;1.00
1361;DHT22;674;45.552;-122.600;2023-05-07T03:46:22;14.00;1.00
1361;DHT22;674;45.552;-122.600;2023-05-07T03:48:50;13.90;1.00
1361;DHT22;674;45.552;-122.600;2023-05-07T03:51:19;13.90;1.00
1361;DHT22;674;45.552;-122.600;2023-05-07T03:53:47;14.00;1.00
1361;DHT22;674;45.552;-122.600;2023-05-07T03:56:16;13.90;1.00
1361;DHT22;674;45.552;-122.600;2023-05-07T03:58:45;13.80;1.00
1361;DHT22;674;45.552;-122.600;2023-05-07T04:01:14;13.90;1.00
1361;DHT22;674;45.552;-122.600;2023-05-07T04:03:43;13.90;1.00
1361;DHT22;674;45.552;-122.600;2023-05-07T04:06:11;13.70;1.00
1361;DHT22;674;45.552;-122.600;2023-05-07T04:08:40;13.90;1.00
1361;DHT22;674;45.552;-122.600;2023-05-07T04:11:09;13.80;1.00
1361;DHT22;674;45.552;-122.600;2023-05-07T04:13:37;13.80;1.00
1361;DHT22;674;45.552;-122.600;2023-05-07T04:16:06;13.70;1.00
1361;DHT22;674;45.552;-122.600;2023-05-07T04:18:35;13.60;1.00
1361;DHT22;674;45.552;-122.600;2023-05-07T04:21:03;13.70;1.00
1361;DHT22;674;45.552;-122.600;2023-05-07T04:23:31;13.60;1.00
1361;DHT22;674;45.552;-122.600;2023-05-07T04:26:00;13.70;1.00
1361;DHT22;674;45.552;-122.600;2023-05-07T04:28:28;13.60;1.00
1361;DHT22;674;45.552;-122.600;2023-05-07T04:30:57;13.40;1.00
1361;DHT22;674;45.552;-122.600;2023-05-07T04:33:25;13.40;1.00
1361;DHT22;674;45.552;-122.600;2023-05-07T04:35:54;13.30;1.00
1361;DHT22;674;45.552;-122.600;2023-05-07T04:38:22;13.30;1.00
1361;DHT22;674;45.552;-122.600;2023-05-07T04:40:51;13.30;1.00
1361;DHT22;674;45.552;-122.600;2023-05-07T04:43:19;13.30;1.00
1361;DHT22;674;45.552;-122.600;2023-05-07T04:45:49;13.30;1.00
1361;DHT22;674;45.552;-122.600;2023-05-07T04:48:18;13.30;1.00
1361;DHT22;674;45.552;-122.600;2023-05-07T04:50:49;13.20;1.00
1361;DHT22;674;45.552;-122.600;2023-05-07T04:53:18;13.20;1.00
1361;DHT22;674;45.552;-122.600;2023-05-07T04:55:46;13.30;1.00
1361;DHT22;674;45.552;-122.600;2023-05-07T04:58:14;13.20;1.00
1361;DHT22;674;45.552;-122.600;2023-05-07T05:00:43;13.00;1.00
1361;DHT22;674;45.552;-122.600;2023-05-07T05:03:11;13.00;1.00
1361;DHT22;674;45.552;-122.600;2023-05-07T05:05:40;12.90;1.00
1361;DHT22;674;45.552;-122.600;2023-05-07T05:08:08;12.90;1.00
1361;DHT22;674;45.552;-122.600;2023-05-07T05:10:37;12.80;1.00
1361;DHT22;674;45.552;-122.600;2023-05-07T05:13:05;12.90;1.00
1361;DHT22;674;45.552;-122.600;2023-05-07T05:15:34;13.00;1.00
1361;DHT22;674;45.552;-122.600;2023-05-07T05:18:02;12.90;1.00
1361;DHT22;674;45.552;-122.600;2023-05-07T05:20:30;13.00;1.00
1361;DHT22;674;45.552;-122.600;2023-05-07T05:22:59;13.00;1.00
1361;DHT22;674;45.552;-122.600;2023-05-07T05:25:27;13.00;1.00
1361;DHT22;674;45.552;-122.600;2023-05-07T05:27:56;13.00;1.00
1361;DHT22;674;45.552;-122.600;2023-05-07T05:30:24;12.80;1.00
1361;DHT22;674;45.552;-122.600;2023-05-07T05:32:53;12.60;1.00
1361;DHT22;674;45.552;-122.600;2023-05-07T05:35:21;12.40;1.00
1361;DHT22;674;45.552;-122.600;2023-05-07T05:37:49;12.30;1.00
1361;DHT22;674;45.552;-122.600;2023-05-07T05:40:18;12.30;1.00
1361;DHT22;674;45.552;-122.600;2023-05-07T05:42:46;12.40;1.00
1361;DHT22;674;45.552;-122.600;2023-05-07T05:45:14;12.50;1.00
1361;DHT22;674;45.552;-122.600;2023-05-07T05:47:43;12.40;1.00
1361;DHT22;674;45.552;-122.600;2023-05-07T05:50:11;12.30;1.00
1361;DHT22;674;45.552;-122.600;2023-05-07T05:52:39;12.20;1.00
1361;DHT22;674;45.552;-122.600;2023-05-07T05:55:09;11.90;1.00
1361;DHT22;674;45.552;-122.600;2023-05-07T05:57:37;11.60;1.00
1361;DHT22;674;45.552;-122.600;2023-05-07T06:00:06;11.50;1.00
1361;DHT22;674;45.552;-122.600;2023-05-07T06:02:36;11.30;1.00
1361;DHT22;674;45.552;-122.600;2023-05-07T06:05:05;11.40;3.50
1361;DHT22;674;45.552;-122.600;2023-05-07T06:07:34;11.20;10.60
1361;DHT22;674;45.552;-122.600;2023-05-07T06:10:02;11.20;16.30
1361;DHT22;674;45.552;-122.600;2023-05-07T06:12:31;11.10;16.80
1361;DHT22;674;45.552;-122.600;2023-05-07T06:15:00;11.10;24.20
1361;DHT22;674;45.552;-122.600;2023-05-07T06:17:29;10.90;31.70
1361;DHT22;674;45.552;-122.600;2023-05-07T06:19:57;11.00;43.20
1361;DHT22;674;45.552;-122.600;2023-05-07T06:22:25;11.10;43.20
1361;DHT22;674;45.552;-122.600;2023-05-07T06:24:54;11.10;32.90
1361;DHT22;674;45.552;-122.600;2023-05-07T06:27:22;10.90;36.50
1361;DHT22;674;45.552;-122.600;2023-05-07T06:29:50;11.10;39.30
1361;DHT22;674;45.552;-122.600;2023-05-07T06:32:19;11.00;29.80
1361;DHT22;674;45.552;-122.600;2023-05-07T06:34:47;11.10;21.80
1361;DHT22;674;45.552;-122.600;2023-05-07T06:37:16;11.30;11.60
1361;DHT22;674;45.552;-122.600;2023-05-07T06:39:44;11.30;4.10
1361;DHT22;674;45.552;-122.600;2023-05-07T06:42:12;11.40;1.00
1361;DHT22;674;45.552;-122.600;2023-05-07T06:44:41;11.40;1.00
1361;DHT22;674;45.552;-122.600;2023-05-07T06:47:09;11.50;1.00
1361;DHT22;674;45.552;-122.600;2023-05-07T06:49:37;11.50;1.00
1361;DHT22;674;45.552;-122.600;2023-05-07T06:52:06;11.50;1.00
1361;DHT22;674;45.552;-122.600;2023-05-07T06:54:34;11.60;1.00
1361;DHT22;674;45.552;-122.600;2023-05-07T06:57:02;11.50;1.00
1361;DHT22;674;45.552;-122.600;2023-05-07T06:59:31;11.50;1.00
1361;DHT22;674;45.552;-122.600;2023-05-07T07:01:59;11.30;1.00
1361;DHT22;674;45.552;-122.600;2023-05-07T07:04:27;11.20;1.00
1361;DHT22;674;45.552;-122.600;2023-05-07T07:06:56;11.20;1.00
1361;DHT22;674;45.552;-122.600;2023-05-07T07:09:24;11.30;1.00
1361;DHT22;674;45.552;-122.600;2023-05-07T07:11:53;11.30;1.00
1361;DHT22;674;45.552;-122.600;2023-05-07T07:14:21;11.40;1.00
1361;DHT22;674;45.552;-122.600;2023-05-07T07:16:49;11.50;1.00
1361;DHT22;674;45.552;-122.600;2023-05-07T07:19:18;11.50;1.00
1361;DHT22;674;45.552;-122.600;2023-05-07T07:21:48;11.50;1.00
1361;DHT22;674;45.552;-122.600;2023-05-07T07:24:16;11.50;1.00
1361;DHT22;674;45.552;-122.600;2023-05-07T07:26:48;11.60;1.00
1361;DHT22;674;45.552;-122.600;2023-05-07T07:29:17;11.70;1.00
1361;DHT22;674;45.552;-122.600;2023-05-07T07:31:47;11.90;1.00
1361;DHT22;674;45.552;-122.600;2023-05-07T07:34:16;11.90;1.00
1361;DHT22;674;45.552;-122.600;2023-05-07T07:36:44;12.00;1.00
1361;DHT22;674;45.552;-122.600;2023-05-07T07:39:13;12.00;1.00
1361;DHT22;674;45.552;-122.600;2023-05-07T07:41:41;11.90;1.00
1361;DHT22;674;45.552;-122.600;2023-05-07T07:44:10;11.80;1.00
1361;DHT22;674;45.552;-122.600;2023-05-07T07:46:42;11.60;1.00
1361;DHT22;674;45.552;-122.600;2023-05-07T07:49:11;11.80;1.00
1361;DHT22;674;45.552;-122.600;2023-05-07T07:51:39;11.80;1.00
1361;DHT22;674;45.552;-122.600;2023-05-07T07:54:07;11.70;1.00
1361;DHT22;674;45.552;-122.600;2023-05-07T07:56:36;11.80;1.00
1361;DHT22;674;45.552;-122.600;2023-05-07T07:59:04;11.70;1.00
1361;DHT22;674;45.552;-122.600;2023-05-07T08:01:33;11.60;1.00
1361;DHT22;674;45.552;-122.600;2023-05-07T08:04:01;11.60;1.00
1361;DHT22;674;45.552;-122.600;2023-05-07T08:06:31;11.60;1.00
1361;DHT22;674;45.552;-122.600;2023-05-07T08:08:59;11.60;1.00
1361;DHT22;674;45.552;-122.600;2023-05-07T08:11:27;11.70;1.00
1361;DHT22;674;45.552;-122.600;2023-05-07T08:13:56;11.80;1.00
1361;DHT22;674;45.552;-122.600;2023-05-07T08:16:24;11.80;1.00
1361;DHT22;674;45.552;-122.600;2023-05-07T08:18:53;11.80;1.00
1361;DHT22;674;45.552;-122.600;2023-05-07T08:21:22;11.70;1.00
1361;DHT22;674;45.552;-122.600;2023-05-07T08:23:50;11.80;1.00
1361;DHT22;674;45.552;-122.600;2023-05-07T08:26:19;11.70;1.00
1361;DHT22;674;45.552;-122.600;2023-05-07T08:28:48;11.70;1.00
1361;DHT22;674;45.552;-122.600;2023-05-07T08:31:16;11.60;1.00
1361;DHT22;674;45.552;-122.600;2023-05-07T08:33:45;11.50;1.00
1361;DHT22;674;45.552;-122.600;2023-05-07T08:36:13;11.60;1.00
1361;DHT22;674;45.552;-122.600;2023-05-07T08:38:41;11.50;1.00
1361;DHT22;674;45.552;-122.600;2023-05-07T08:41:12;11.50;1.00
1361;DHT22;674;45.552;-122.600;2023-05-07T08:43:41;11.40;1.00
1361;DHT22;674;45.552;-122.600;2023-05-07T08:46:17;11.40;1.00
1361;DHT22;674;45.552;-122.600;2023-05-07T08:48:50;11.20;1.00
1361;DHT22;674;45.552;-122.600;2023-05-07T08:51:21;11.20;1.00
1361;DHT22;674;45.552;-122.600;2023-05-07T08:53:50;11.10;1.00
1361;DHT22;674;45.552;-122.600;2023-05-07T08:56:18;10.90;1.00
1361;DHT22;674;45.552;-122.600;2023-05-07T08:58:48;11.00;1.00
1361;DHT22;674;45.552;-122.600;2023-05-07T09:01:17;11.20;1.00
1361;DHT22;674;45.552;-122.600;2023-05-07T09:03:46;11.10;1.00
1361;DHT22;674;45.552;-122.600;2023-05-07T09:06:15;11.20;1.00
1361;DHT22;674;45.552;-122.600;2023-05-07T09:08:51;11.20;1.00
1361;DHT22;674;45.552;-122.600;2023-05-07T09:11:24;11.20;1.00
1361;DHT22;674;45.552;-122.600;2023-05-07T09:13:56;11.20;1.00
1361;DHT22;674;45.552;-122.600;2023-05-07T09:16:30;11.10;1.00
1361;DHT22;674;45.552;-122.600;2023-05-07T09:18:59;11.10;1.00
1361;DHT22;674;45.552;-122.600;2023-05-07T09:21:28;11.20;1.00
1361;DHT22;674;45.552;-122.600;2023-05-07T09:23:57;11.20;1.00
1361;DHT22;674;45.552;-122.600;2023-05-07T09:26:26;11.10;1.00
1361;DHT22;674;45.552;-122.600;2023-05-07T09:28:55;11.00;1.00
1361;DHT22;674;45.552;-122.600;2023-05-07T09:31:24;10.90;1.00
1361;DHT22;674;45.552;-122.600;2023-05-07T09:33:53;10.90;1.00
1361;DHT22;674;45.552;-122.600;2023-05-07T09:36:23;10.80;1.00
1361;DHT22;674;45.552;-122.600;2023-05-07T09:38:52;10.90;1.00
1361;DHT22;674;45.552;-122.600;2023-05-07T09:41:20;11.00;1.00
1361;DHT22;674;45.552;-122.600;2023-05-07T09:43:54;11.00;1.00
1361;DHT22;674;45.552;-122.600;2023-05-07T09:46:29;11.10;1.00
1361;DHT22;674;45.552;-122.600;2023-05-07T09:48:58;11.10;1.00
1361;DHT22;674;45.552;-122.600;2023-05-07T09:51:39;11.10;1.00
1361;DHT22;674;45.552;-122.600;2023-05-07T09:54:10;11.00;1.00
1361;DHT22;674;45.552;-122.600;2023-05-07T09:56:39;10.90;1.00
1361;DHT22;674;45.552;-122.600;2023-05-07T09:59:13;11.00;1.00
1361;DHT22;674;45.552;-122.600;2023-05-07T10:01:42;10.70;1.00
1361;DHT22;674;45.552;-122.600;2023-05-07T10:04:12;10.80;1.00
1361;DHT22;674;45.552;-122.600;2023-05-07T10:06:41;10.90;1.00
1361;DHT22;674;45.552;-122.600;2023-05-07T10:09:10;11.00;1.00
1361;DHT22;674;45.552;-122.600;2023-05-07T10:11:39;11.00;1.00
1361;DHT22;674;45.552;-122.600;2023-05-07T10:14:08;11.10;1.00
1361;DHT22;674;45.552;-122.600;2023-05-07T10:16:37;10.90;1.00
1361;DHT22;674;45.552;-122.600;2023-05-07T10:19:08;11.10;1.00
1361;DHT22;674;45.552;-122.600;2023-05-07T10:21:48;11.20;1.00
1361;DHT22;674;45.552;-122.600;2023-05-07T10:24:26;11.00;1.00
1361;DHT22;674;45.552;-122.600;2023-05-07T10:26:55;10.80;1.00
1361;DHT22;674;45.552;-122.600;2023-05-07T10:32:26;10.90;1.00
1361;DHT22;674;45.552;-122.600;2023-05-07T10:35:01;11.00;1.00
1361;DHT22;674;45.552;-122.600;2023-05-07T10:37:30;11.00;1.00
1361;DHT22;674;45.552;-122.600;2023-05-07T10:39:59;11.00;1.00
1361;DHT22;674;45.552;-122.600;2023-05-07T10:42:28;10.80;1.00
1361;DHT22;674;45.552;-122.600;2023-05-07T10:44:56;11.00;1.00
1361;DHT22;674;45.552;-122.600;2023-05-07T10:47:25;10.90;1.00
1361;DHT22;674;45.552;-122.600;2023-05-07T10:52:34;10.90;1.00
1361;DHT22;674;45.552;-122.600;2023-05-07T10:57:46;10.70;1.00
1361;DHT22;674;45.552;-122.600;2023-05-07T11:03:05;10.70;1.00
1361;DHT22;674;45.552;-122.600;2023-05-07T11:05:35;10.70;1.00
1361;DHT22;674;45.552;-122.600;2023-05-07T11:08:05;10.90;1.00
1361;DHT22;674;45.552;-122.600;2023-05-07T11:10:56;10.60;1.00
1361;DHT22;674;45.552;-122.600;2023-05-07T11:13:45;10.60;1.00
1361;DHT22;674;45.552;-122.600;2023-05-07T11:16:21;10.50;1.00
1361;DHT22;674;45.552;-122.600;2023-05-07T11:18:52;10.70;1.00
1361;DHT22;674;45.552;-122.600;2023-05-07T11:21:34;10.70;1.00
1361;DHT22;674;45.552;-122.600;2023-05-07T11:24:04;10.90;1.00
1361;DHT22;674;45.552;-122.600;2023-05-07T11:26:53;10.60;1.00
1361;DHT22;674;45.552;-122.600;2023-05-07T11:29:22;10.50;1.00
1361;DHT22;674;45.552;-122.600;2023-05-07T11:31:54;10.60;1.00
1361;DHT22;674;45.552;-122.600;2023-05-07T11:34:24;10.70;1.00
1361;DHT22;674;45.552;-122.600;2023-05-07T11:36:54;10.70;1.00
1361;DHT22;674;45.552;-122.600;2023-05-07T11:39:41;10.80;1.00
1361;DHT22;674;45.552;-122.600;2023-05-07T11:42:29;10.70;1.00
1361;DHT22;674;45.552;-122.600;2023-05-07T11:44:57;10.70;1.00
1361;DHT22;674;45.552;-122.600;2023-05-07T11:47:26;10.70;1.00
1361;DHT22;674;45.552;-122.600;2023-05-07T11:50:06;10.70;1.00
1361;DHT22;674;45.552;-122.600;2023-05-07T11:52:35;10.70;1.00
1361;DHT22;674;45.552;-122.600;2023-05-07T11:55:04;10.70;1.00
1361;DHT22;674;45.552;-122.600;2023-05-07T11:57:33;10.80;1.00
1361;DHT22;674;45.552;-122.600;2023-05-07T12:00:02;10.80;1.00
1361;DHT22;674;45.552;-122.600;2023-05-07T12:02:32;10.90;1.00
1361;DHT22;674;45.552;-122.600;2023-05-07T12:05:02;10.80;1.00
1361;DHT22;674;45.552;-122.600;2023-05-07T12:07:33;10.90;1.00
1361;DHT22;674;45.552;-122.600;2023-05-07T12:10:12;10.90;1.00
1361;DHT22;674;45.552;-122.600;2023-05-07T12:12:41;10.90;1.00
1361;DHT22;674;45.552;-122.600;2023-05-07T12:15:17;10.70;1.00
1361;DHT22;674;45.552;-122.600;2023-05-07T12:17:45;10.70;1.00
1361;DHT22;674;45.552;-122.600;2023-05-07T12:20:14;10.80;1.00
1361;DHT22;674;45.552;-122.600;2023-05-07T12:22:42;10.70;1.00
1361;DHT22;674;45.552;-122.600;2023-05-07T12:25:11;10.70;1.00
1361;DHT22;674;45.552;-122.600;2023-05-07T12:27:40;10.60;1.00
1361;DHT22;674;45.552;-122.600;2023-05-07T12:30:10;10.50;1.00
1361;DHT22;674;45.552;-122.600;2023-05-07T12:32:39;10.60;1.00
1361;DHT22;674;45.552;-122.600;2023-05-07T12:35:08;10.50;1.00
1361;DHT22;674;45.552;-122.600;2023-05-07T12:37:37;10.60;1.00
1361;DHT22;674;45.552;-122.600;2023-05-07T12:40:09;10.60;1.00
1361;DHT22;674;45.552;-122.600;2023-05-07T12:42:40;10.50;1.00
1361;DHT22;674;45.552;-122.600;2023-05-07T12:45:13;10.60;1.00
1361;DHT22;674;45.552;-122.600;2023-05-07T12:47:47;10.60;1.00
1361;DHT22;674;45.552;-122.600;2023-05-07T12:50:16;10.60;1.00
1361;DHT22;674;45.552;-122.600;2023-05-07T12:52:45;10.70;1.00
1361;DHT22;674;45.552;-122.600;2023-05-07T12:55:15;10.70;1.00
1361;DHT22;674;45.552;-122.600;2023-05-07T12:57:51;10.70;1.00
1361;DHT22;674;45.552;-122.600;2023-05-07T13:00:39;10.70;1.00
1361;DHT22;674;45.552;-122.600;2023-05-07T13:03:07;10.70;1.00
1361;DHT22;674;45.552;-122.600;2023-05-07T13:05:36;10.80;1.00
1361;DHT22;674;45.552;-122.600;2023-05-07T13:08:04;10.90;1.00
1361;DHT22;674;45.552;-122.600;2023-05-07T13:10:33;10.90;1.00
1361;DHT22;674;45.552;-122.600;2023-05-07T13:13:02;10.80;1.00
1361;DHT22;674;45.552;-122.600;2023-05-07T13:15:31;10.80;1.00
1361;DHT22;674;45.552;-122.600;2023-05-07T13:17:59;10.80;1.00
1361;DHT22;674;45.552;-122.600;2023-05-07T13:20:28;10.80;1.00
1361;DHT22;674;45.552;-122.600;2023-05-07T13:22:56;11.00;1.00
1361;DHT22;674;45.552;-122.600;2023-05-07T13:25:24;11.10;1.00
1361;DHT22;674;45.552;-122.600;2023-05-07T13:27:53;10.90;1.00
1361;DHT22;674;45.552;-122.600;2023-05-07T13:30:36;11.00;1.00
1361;DHT22;674;45.552;-122.600;2023-05-07T13:33:05;11.00;1.00
1361;DHT22;674;45.552;-122.600;2023-05-07T13:35:33;11.00;1.00
1361;DHT22;674;45.552;-122.600;2023-05-07T13:38:02;10.90;1.00
1361;DHT22;674;45.552;-122.600;2023-05-07T13:40:30;10.90;1.00
1361;DHT22;674;45.552;-122.600;2023-05-07T13:42:59;10.90;1.00
1361;DHT22;674;45.552;-122.600;2023-05-07T13:45:30;11.00;1.00
1361;DHT22;674;45.552;-122.600;2023-05-07T13:47:58;11.00;1.00
1361;DHT22;674;45.552;-122.600;2023-05-07T13:50:27;10.90;1.00
1361;DHT22;674;45.552;-122.600;2023-05-07T13:52:57;11.10;1.00
1361;DHT22;674;45.552;-122.600;2023-05-07T13:55:28;10.90;1.00
1361;DHT22;674;45.552;-122.600;2023-05-07T13:58:01;11.00;1.00
1361;DHT22;674;45.552;-122.600;2023-05-07T14:00:33;11.00;1.00
1361;DHT22;674;45.552;-122.600;2023-05-07T14:03:02;11.00;1.00
1361;DHT22;674;45.552;-122.600;2023-05-07T14:05:32;10.90;1.00
1361;DHT22;674;45.552;-122.600;2023-05-07T14:08:00;10.90;1.00
1361;DHT22;674;45.552;-122.600;2023-05-07T14:10:29;10.90;1.00
1361;DHT22;674;45.552;-122.600;2023-05-07T14:12:58;10.90;1.00
1361;DHT22;674;45.552;-122.600;2023-05-07T14:15:26;10.80;1.00
1361;DHT22;674;45.552;-122.600;2023-05-07T14:17:55;10.80;1.00
1361;DHT22;674;45.552;-122.600;2023-05-07T14:20:23;10.80;1.00
1361;DHT22;674;45.552;-122.600;2023-05-07T14:22:51;10.90;1.00
1361;DHT22;674;45.552;-122.600;2023-05-07T14:25:21;10.70;1.00
1361;DHT22;674;45.552;-122.600;2023-05-07T14:27:49;10.70;1.00
1361;DHT22;674;45.552;-122.600;2023-05-07T14:30:18;10.70;1.00
1361;DHT22;674;45.552;-122.600;2023-05-07T14:32:47;10.70;1.00
1361;DHT22;674;45.552;-122.600;2023-05-07T14:35:16;11.00;1.00
1361;DHT22;674;45.552;-122.600;2023-05-07T14:37:44;11.30;1.00
1361;DHT22;674;45.552;-122.600;2023-05-07T14:40:12;11.30;1.00
1361;DHT22;674;45.552;-122.600;2023-05-07T14:42:42;11.40;1.00
1361;DHT22;674;45.552;-122.600;2023-05-07T14:45:10;11.20;1.00
1361;DHT22;674;45.552;-122.600;2023-05-07T14:47:41;11.50;1.00
1361;DHT22;674;45.552;-122.600;2023-05-07T14:50:09;11.70;1.00
1361;DHT22;674;45.552;-122.600;2023-05-07T14:52:38;11.90;1.00
1361;DHT22;674;45.552;-122.600;2023-05-07T14:55:06;12.10;1.00
1361;DHT22;674;45.552;-122.600;2023-05-07T14:57:35;12.40;1.00
1361;DHT22;674;45.552;-122.600;2023-05-07T15:00:04;12.50;1.00
1361;DHT22;674;45.552;-122.600;2023-05-07T15:02:33;12.30;1.00
1361;DHT22;674;45.552;-122.600;2023-05-07T15:05:02;12.70;1.00
1361;DHT22;674;45.552;-122.600;2023-05-07T15:07:30;12.90;1.00
1361;DHT22;674;45.552;-122.600;2023-05-07T15:10:01;13.00;1.00
1361;DHT22;674;45.552;-122.600;2023-05-07T15:12:30;13.50;1.00
1361;DHT22;674;45.552;-122.600;2023-05-07T15:14:58;14.00;1.00
1361;DHT22;674;45.552;-122.600;2023-05-07T15:17:27;14.40;1.00
1361;DHT22;674;45.552;-122.600;2023-05-07T15:19:55;14.60;1.00
1361;DHT22;674;45.552;-122.600;2023-05-07T15:22:24;15.40;1.00
1361;DHT22;674;45.552;-122.600;2023-05-07T15:24:52;15.20;1.00
1361;DHT22;674;45.552;-122.600;2023-05-07T15:27:23;15.10;1.00
1361;DHT22;674;45.552;-122.600;2023-05-07T15:29:51;15.30;1.00
1361;DHT22;674;45.552;-122.600;2023-05-07T15:32:20;15.80;1.00
1361;DHT22;674;45.552;-122.600;2023-05-07T15:34:48;15.90;1.00
1361;DHT22;674;45.552;-122.600;2023-05-07T15:37:16;16.20;1.00
1361;DHT22;674;45.552;-122.600;2023-05-07T15:39:45;16.10;1.00
1361;DHT22;674;45.552;-122.600;2023-05-07T15:42:13;16.70;1.00
1361;DHT22;674;45.552;-122.600;2023-05-07T15:44:42;16.50;1.00
1361;DHT22;674;45.552;-122.600;2023-05-07T15:47:10;17.40;1.00
1361;DHT22;674;45.552;-122.600;2023-05-07T15:49:42;17.80;1.00
1361;DHT22;674;45.552;-122.600;2023-05-07T15:52:11;17.60;1.00
1361;DHT22;674;45.552;-122.600;2023-05-07T15:54:43;17.10;1.00
1361;DHT22;674;45.552;-122.600;2023-05-07T15:57:12;16.20;1.00
1361;DHT22;674;45.552;-122.600;2023-05-07T15:59:40;15.60;1.00
1361;DHT22;674;45.552;-122.600;2023-05-07T16:02:09;15.80;1.00
1361;DHT22;674;45.552;-122.600;2023-05-07T16:04:37;16.60;1.00
1361;DHT22;674;45.552;-122.600;2023-05-07T16:07:06;16.70;1.00
1361;DHT22;674;45.552;-122.600;2023-05-07T16:09:36;17.10;1.00